sensor_id;sensor_type;location;lat;lon;timestamp;P1;durP1;ratioP1;P2;durP2;ratioP2
10114;SDS011;5097;43.260;27.812;2023-05-10T00:01:47;22.53;;;13.33;;
10114;SDS011;5097;43.260;27.812;2023-05-10T00:04:32;23.47;;;13.97;;
10114;SDS011;5097;43.260;27.812;2023-05-10T00:07:17;19.80;;;11.27;;
10114;SDS011;5097;43.260;27.812;2023-05-10T00:10:01;17.33;;;11.70;;
10114;SDS011;5097;43.260;27.812;2023-05-10T00:12:46;11.03;;;8.70;;
10114;SDS011;5097;43.260;27.812;2023-05-10T00:15:30;12.50;;;9.27;;
10114;SDS011;5097;43.260;27.812;2023-05-10T00:18:14;13.40;;;9.27;;
10114;SDS011;5097;43.260;27.812;2023-05-10T00:20:58;13.33;;;8.90;;
10114;SDS011;5097;43.260;27.812;2023-05-10T00:23:43;11.07;;;8.43;;
10114;SDS011;5097;43.260;27.812;2023-05-10T00:26:27;10.30;;;8.37;;
10114;SDS011;5097;43.260;27.812;2023-05-10T00:29:12;12.30;;;9.03;;
10114;SDS011;5097;43.260;27.812;2023-05-10T00:31:56;18.47;;;11.67;;
10114;SDS011;5097;43.260;27.812;2023-05-10T00:34:40;26.80;;;15.73;;
10114;SDS011;5097;43.260;27.812;2023-05-10T00:37:24;20.40;;;13.83;;
10114;SDS011;5097;43.260;27.812;2023-05-10T00:40:11;22.33;;;14.97;;
10114;SDS011;5097;43.260;27.812;2023-05-10T00:43:01;27.27;;;15.60;;
10114;SDS011;5097;43.260;27.812;2023-05-10T00:45:45;17.63;;;11.83;;
10114;SDS011;5097;43.260;27.812;2023-05-10T00:48:29;22.87;;;14.00;;
10114;SDS011;5097;43.260;27.812;2023-05-10T00:51:13;17.93;;;12.63;;
10114;SDS011;5097;43.260;27.812;2023-05-10T00:53:59;21.33;;;13.77;;
10114;SDS011;5097;43.260;27.812;2023-05-10T00:56:44;16.57;;;11.33;;
10114;SDS011;5097;43.260;27.812;2023-05-10T00:59:31;26.93;;;15.43;;
10114;SDS011;5097;43.260;27.812;2023-05-10T01:02:15;20.90;;;12.57;;
10114;SDS011;5097;43.260;27.812;2023-05-10T01:05:00;12.37;;;10.43;;
10114;SDS011;5097;43.260;27.812;2023-05-10T01:07:46;17.10;;;12.70;;
10114;SDS011;5097;43.260;27.812;2023-05-10T01:10:30;17.00;;;11.60;;
10114;SDS011;5097;43.260;27.812;2023-05-10T01:13:27;22.30;;;12.83;;
10114;SDS011;5097;43.260;27.812;2023-05-10T01:16:16;19.27;;;12.07;;
10114;SDS011;5097;43.260;27.812;2023-05-10T01:19:02;29.03;;;17.17;;
10114;SDS011;5097;43.260;27.812;2023-05-10T01:21:49;31.10;;;17.83;;
10114;SDS011;5097;43.260;27.812;2023-05-10T01:28:03;37.27;;;20.67;;
10114;SDS011;5097;43.260;27.812;2023-05-10T01:31:07;39.17;;;21.77;;
10114;SDS011;5097;43.260;27.812;2023-05-10T01:34:02;34.17;;;20.70;;
10114;SDS011;5097;43.260;27.812;2023-05-10T01:36:52;36.03;;;19.70;;
10114;SDS011;5097;43.260;27.812;2023-05-10T01:39:43;27.57;;;17.93;;
10114;SDS011;5097;43.260;27.812;2023-05-10T01:42:31;25.43;;;16.60;;
10114;SDS011;5097;43.260;27.812;2023-05-10T01:45:24;24.87;;;15.03;;
10114;SDS011;5097;43.260;27.812;2023-05-10T01:48:14;31.30;;;18.17;;
10114;SDS011;5097;43.260;27.812;2023-05-10T01:51:00;24.83;;;16.87;;
10114;SDS011;5097;43.260;27.812;2023-05-10T01:53:46;34.93;;;19.40;;
10114;SDS011;5097;43.260;27.812;2023-05-10T01:56:33;27.33;;;17.40;;
10114;SDS011;5097;43.260;27.812;2023-05-10T01:59:21;40.83;;;22.33;;
10114;SDS011;5097;43.260;27.812;2023-05-10T02:02:10;33.30;;;19.77;;
10114;SDS011;5097;43.260;27.812;2023-05-10T02:04:55;45.63;;;23.67;;
10114;SDS011;5097;43.260;27.812;2023-05-10T02:07:43;37.90;;;21.67;;
10114;SDS011;5097;43.260;27.812;2023-05-10T02:10:28;32.63;;;22.50;;
10114;SDS011;5097;43.260;27.812;2023-05-10T02:13:12;33.37;;;22.70;;
10114;SDS011;5097;43.260;27.812;2023-05-10T02:15:57;35.83;;;23.23;;
10114;SDS011;5097;43.260;27.812;2023-05-10T02:18:43;33.10;;;22.47;;
10114;SDS011;5097;43.260;27.812;2023-05-10T02:21:28;35.50;;;22.50;;
10114;SDS011;5097;43.260;27.812;2023-05-10T02:24:14;34.27;;;21.83;;
10114;SDS011;5097;43.260;27.812;2023-05-10T02:26:59;30.70;;;22.63;;
10114;SDS011;5097;43.260;27.812;2023-05-10T02:29:46;27.73;;;19.80;;
10114;SDS011;5097;43.260;27.812;2023-05-10T02:32:31;30.97;;;20.30;;
10114;SDS011;5097;43.260;27.812;2023-05-10T02:35:16;28.90;;;22.53;;
10114;SDS011;5097;43.260;27.812;2023-05-10T02:38:00;30.87;;;21.60;;
10114;SDS011;5097;43.260;27.812;2023-05-10T02:40:47;37.07;;;24.30;;
10114;SDS011;5097;43.260;27.812;2023-05-10T02:43:31;34.17;;;22.47;;
10114;SDS011;5097;43.260;27.812;2023-05-10T02:46:16;29.70;;;23.00;;
10114;SDS011;5097;43.260;27.812;2023-05-10T02:49:01;23.67;;;18.13;;
10114;SDS011;5097;43.260;27.812;2023-05-10T02:51:47;22.20;;;17.43;;
10114;SDS011;5097;43.260;27.812;2023-05-10T02:54:37;22.83;;;17.57;;
10114;SDS011;5097;43.260;27.812;2023-05-10T02:57:31;19.40;;;15.03;;
10114;SDS011;5097;43.260;27.812;2023-05-10T03:00:17;18.17;;;14.20;;
10114;SDS011;5097;43.260;27.812;2023-05-10T03:03:02;21.57;;;16.20;;
10114;SDS011;5097;43.260;27.812;2023-05-10T03:05:46;17.43;;;14.43;;
10114;SDS011;5097;43.260;27.812;2023-05-10T03:08:30;16.43;;;13.30;;
10114;SDS011;5097;43.260;27.812;2023-05-10T03:11:18;15.73;;;13.00;;
10114;SDS011;5097;43.260;27.812;2023-05-10T03:14:21;15.93;;;13.57;;
10114;SDS011;5097;43.260;27.812;2023-05-10T03:17:15;14.10;;;12.57;;
10114;SDS011;5097;43.260;27.812;2023-05-10T03:20:04;15.77;;;13.27;;
10114;SDS011;5097;43.260;27.812;2023-05-10T03:22:55;15.30;;;13.13;;
10114;SDS011;5097;43.260;27.812;2023-05-10T03:25:44;13.97;;;12.40;;
10114;SDS011;5097;43.260;27.812;2023-05-10T03:28:31;15.70;;;13.70;;
10114;SDS011;5097;43.260;27.812;2023-05-10T03:31:20;14.43;;;12.93;;
10114;SDS011;5097;43.260;27.812;2023-05-10T03:34:04;15.60;;;13.70;;
10114;SDS011;5097;43.260;27.812;2023-05-10T03:36:49;17.60;;;13.30;;
10114;SDS011;5097;43.260;27.812;2023-05-10T03:39:34;15.00;;;13.27;;
10114;SDS011;5097;43.260;27.812;2023-05-10T03:42:20;14.63;;;13.03;;
10114;SDS011;5097;43.260;27.812;2023-05-10T03:45:05;14.83;;;13.10;;
10114;SDS011;5097;43.260;27.812;2023-05-10T03:47:52;14.97;;;12.37;;
10114;SDS011;5097;43.260;27.812;2023-05-10T03:50:36;14.27;;;12.63;;
10114;SDS011;5097;43.260;27.812;2023-05-10T03:53:20;14.33;;;12.47;;
10114;SDS011;5097;43.260;27.812;2023-05-10T03:56:05;15.50;;;12.90;;
10114;SDS011;5097;43.260;27.812;2023-05-10T03:58:50;14.93;;;12.17;;
10114;SDS011;5097;43.260;27.812;2023-05-10T04:01:34;13.77;;;12.30;;
10114;SDS011;5097;43.260;27.812;2023-05-10T04:04:20;14.63;;;11.73;;
10114;SDS011;5097;43.260;27.812;2023-05-10T04:07:05;13.90;;;11.83;;
10114;SDS011;5097;43.260;27.812;2023-05-10T04:09:49;12.57;;;11.27;;
10114;SDS011;5097;43.260;27.812;2023-05-10T04:12:33;14.20;;;11.90;;
10114;SDS011;5097;43.260;27.812;2023-05-10T04:15:17;12.03;;;10.83;;
10114;SDS011;5097;43.260;27.812;2023-05-10T04:18:01;20.83;;;11.27;;
10114;SDS011;5097;43.260;27.812;2023-05-10T04:20:49;12.50;;;10.60;;
10114;SDS011;5097;43.260;27.812;2023-05-10T04:23:33;11.73;;;10.53;;
10114;SDS011;5097;43.260;27.812;2023-05-10T04:26:17;14.13;;;11.07;;
10114;SDS011;5097;43.260;27.812;2023-05-10T04:29:01;11.53;;;10.37;;
10114;SDS011;5097;43.260;27.812;2023-05-10T04:31:45;11.37;;;9.73;;
10114;SDS011;5097;43.260;27.812;2023-05-10T04:34:29;11.13;;;10.03;;
10114;SDS011;5097;43.260;27.812;2023-05-10T04:37:14;10.60;;;9.50;;
10114;SDS011;5097;43.260;27.812;2023-05-10T04:39:58;13.30;;;10.67;;
10114;SDS011;5097;43.260;27.812;2023-05-10T04:42:45;10.93;;;9.73;;
10114;SDS011;5097;43.260;27.812;2023-05-10T04:45:29;11.07;;;8.80;;
10114;SDS011;5097;43.260;27.812;2023-05-10T04:48:13;11.33;;;9.73;;
10114;SDS011;5097;43.260;27.812;2023-05-10T04:50:57;10.40;;;7.90;;
10114;SDS011;5097;43.260;27.812;2023-05-10T04:53:43;10.60;;;7.63;;
10114;SDS011;5097;43.260;27.812;2023-05-10T04:56:43;9.27;;;7.63;;
10114;SDS011;5097;43.260;27.812;2023-05-10T04:59:27;8.53;;;6.90;;
10114;SDS011;5097;43.260;27.812;2023-05-10T05:02:11;9.00;;;6.83;;
10114;SDS011;5097;43.260;27.812;2023-05-10T05:04:55;9.80;;;5.90;;
10114;SDS011;5097;43.260;27.812;2023-05-10T05:07:40;7.10;;;6.37;;
10114;SDS011;5097;43.260;27.812;2023-05-10T05:10:27;6.53;;;5.63;;
10114;SDS011;5097;43.260;27.812;2023-05-10T05:13:12;6.97;;;5.77;;
10114;SDS011;5097;43.260;27.812;2023-05-10T05:15:56;6.67;;;5.23;;
10114;SDS011;5097;43.260;27.812;2023-05-10T05:18:40;8.30;;;5.60;;
10114;SDS011;5097;43.260;27.812;2023-05-10T05:21:24;6.30;;;5.20;;
10114;SDS011;5097;43.260;27.812;2023-05-10T05:24:09;8.50;;;6.33;;
10114;SDS011;5097;43.260;27.812;2023-05-10T05:26:56;5.80;;;5.30;;
10114;SDS011;5097;43.260;27.812;2023-05-10T05:29:40;6.10;;;4.93;;
10114;SDS011;5097;43.260;27.812;2023-05-10T05:32:24;5.83;;;5.03;;
10114;SDS011;5097;43.260;27.812;2023-05-10T05:35:08;5.77;;;4.93;;
10114;SDS011;5097;43.260;27.812;2023-05-10T05:37:53;7.47;;;5.73;;
10114;SDS011;5097;43.260;27.812;2023-05-10T05:40:37;5.63;;;5.07;;
10114;SDS011;5097;43.260;27.812;2023-05-10T05:43:23;4.80;;;4.40;;
10114;SDS011;5097;43.260;27.812;2023-05-10T05:46:07;5.10;;;4.60;;
10114;SDS011;5097;43.260;27.812;2023-05-10T05:48:52;7.03;;;4.53;;
10114;SDS011;5097;43.260;27.812;2023-05-10T05:51:36;4.00;;;3.70;;
10114;SDS011;5097;43.260;27.812;2023-05-10T05:54:20;5.50;;;3.50;;
10114;SDS011;5097;43.260;27.812;2023-05-10T05:57:04;3.77;;;3.47;;
10114;SDS011;5097;43.260;27.812;2023-05-10T05:59:49;4.10;;;3.50;;
10114;SDS011;5097;43.260;27.812;2023-05-10T06:02:33;4.03;;;3.70;;
10114;SDS011;5097;43.260;27.812;2023-05-10T06:05:18;3.73;;;3.43;;
10114;SDS011;5097;43.260;27.812;2023-05-10T06:08:02;4.70;;;4.20;;
10114;SDS011;5097;43.260;27.812;2023-05-10T06:10:46;6.13;;;3.90;;
10114;SDS011;5097;43.260;27.812;2023-05-10T06:13:30;4.37;;;4.07;;
10114;SDS011;5097;43.260;27.812;2023-05-10T06:16:19;4.03;;;3.73;;
10114;SDS011;5097;43.260;27.812;2023-05-10T06:19:03;3.63;;;3.33;;
10114;SDS011;5097;43.260;27.812;2023-05-10T06:21:47;4.13;;;3.80;;
10114;SDS011;5097;43.260;27.812;2023-05-10T06:24:32;4.07;;;3.73;;
10114;SDS011;5097;43.260;27.812;2023-05-10T06:27:17;5.73;;;4.23;;
10114;SDS011;5097;43.260;27.812;2023-05-10T06:30:01;7.20;;;3.67;;
10114;SDS011;5097;43.260;27.812;2023-05-10T06:32:56;6.17;;;4.23;;
10114;SDS011;5097;43.260;27.812;2023-05-10T06:35:40;4.27;;;3.87;;
10114;SDS011;5097;43.260;27.812;2023-05-10T06:38:24;5.87;;;4.23;;
10114;SDS011;5097;43.260;27.812;2023-05-10T06:41:10;5.17;;;3.93;;
10114;SDS011;5097;43.260;27.812;2023-05-10T06:43:54;4.40;;;3.70;;
10114;SDS011;5097;43.260;27.812;2023-05-10T06:46:38;4.60;;;3.73;;
10114;SDS011;5097;43.260;27.812;2023-05-10T06:49:23;3.90;;;3.60;;
10114;SDS011;5097;43.260;27.812;2023-05-10T06:52:07;3.97;;;3.67;;
10114;SDS011;5097;43.260;27.812;2023-05-10T06:54:51;7.50;;;3.50;;
10114;SDS011;5097;43.260;27.812;2023-05-10T06:57:35;6.50;;;3.60;;
10114;SDS011;5097;43.260;27.812;2023-05-10T07:00:21;3.63;;;3.43;;
10114;SDS011;5097;43.260;27.812;2023-05-10T07:03:05;7.63;;;3.93;;
10114;SDS011;5097;43.260;27.812;2023-05-10T07:05:50;3.50;;;3.20;;
10114;SDS011;5097;43.260;27.812;2023-05-10T07:08:34;4.23;;;3.43;;
10114;SDS011;5097;43.260;27.812;2023-05-10T07:11:19;9.23;;;4.97;;
10114;SDS011;5097;43.260;27.812;2023-05-10T07:14:03;6.40;;;3.37;;
10114;SDS011;5097;43.260;27.812;2023-05-10T07:16:47;3.83;;;3.53;;
10114;SDS011;5097;43.260;27.812;2023-05-10T07:19:31;4.03;;;3.23;;
10114;SDS011;5097;43.260;27.812;2023-05-10T07:22:17;9.50;;;5.00;;
10114;SDS011;5097;43.260;27.812;2023-05-10T07:25:01;4.30;;;3.90;;
10114;SDS011;5097;43.260;27.812;2023-05-10T07:27:46;4.33;;;3.33;;
10114;SDS011;5097;43.260;27.812;2023-05-10T07:30:31;6.27;;;5.10;;
10114;SDS011;5097;43.260;27.812;2023-05-10T07:33:15;3.20;;;2.90;;
10114;SDS011;5097;43.260;27.812;2023-05-10T07:35:59;3.30;;;3.00;;
10114;SDS011;5097;43.260;27.812;2023-05-10T07:38:45;3.50;;;3.20;;
10114;SDS011;5097;43.260;27.812;2023-05-10T07:41:29;3.73;;;2.90;;
10114;SDS011;5097;43.260;27.812;2023-05-10T07:44:15;7.70;;;2.90;;
10114;SDS011;5097;43.260;27.812;2023-05-10T07:47:01;3.63;;;2.80;;
10114;SDS011;5097;43.260;27.812;2023-05-10T07:49:45;6.53;;;4.43;;
10114;SDS011;5097;43.260;27.812;2023-05-10T07:52:29;5.53;;;5.20;;
10114;SDS011;5097;43.260;27.812;2023-05-10T07:55:14;3.20;;;2.87;;
10114;SDS011;5097;43.260;27.812;2023-05-10T07:58:00;5.87;;;3.23;;
10114;SDS011;5097;43.260;27.812;2023-05-10T08:00:45;3.73;;;3.30;;
10114;SDS011;5097;43.260;27.812;2023-05-10T08:03:30;3.70;;;2.90;;
10114;SDS011;5097;43.260;27.812;2023-05-10T08:06:15;4.20;;;2.87;;
10114;SDS011;5097;43.260;27.812;2023-05-10T08:08:59;3.22;;;2.80;;
10114;SDS011;5097;43.260;27.812;2023-05-10T08:11:44;4.03;;;2.67;;
10114;SDS011;5097;43.260;27.812;2023-05-10T08:14:28;2.93;;;2.67;;
10114;SDS011;5097;43.260;27.812;2023-05-10T08:17:13;2.80;;;2.60;;
10114;SDS011;5097;43.260;27.812;2023-05-10T08:19:57;3.55;;;2.78;;
10114;SDS011;5097;43.260;27.812;2023-05-10T08:22:41;3.55;;;2.72;;
10114;SDS011;5097;43.260;27.812;2023-05-10T08:25:25;3.05;;;2.72;;
10114;SDS011;5097;43.260;27.812;2023-05-10T08:28:10;4.07;;;2.83;;
10114;SDS011;5097;43.260;27.812;2023-05-10T08:30:55;3.45;;;2.70;;
10114;SDS011;5097;43.260;27.812;2023-05-10T08:33:39;3.28;;;2.72;;
10114;SDS011;5097;43.260;27.812;2023-05-10T08:36:25;4.47;;;2.90;;
10114;SDS011;5097;43.260;27.812;2023-05-10T08:39:10;2.70;;;2.40;;
10114;SDS011;5097;43.260;27.812;2023-05-10T08:42:08;5.20;;;3.03;;
10114;SDS011;5097;43.260;27.812;2023-05-10T08:44:54;2.80;;;2.60;;
10114;SDS011;5097;43.260;27.812;2023-05-10T08:47:40;4.93;;;3.00;;
10114;SDS011;5097;43.260;27.812;2023-05-10T08:50:25;2.83;;;2.63;;
10114;SDS011;5097;43.260;27.812;2023-05-10T08:53:11;6.63;;;3.10;;
10114;SDS011;5097;43.260;27.812;2023-05-10T08:55:56;4.18;;;2.63;;
10114;SDS011;5097;43.260;27.812;2023-05-10T08:58:40;2.97;;;2.67;;
10114;SDS011;5097;43.260;27.812;2023-05-10T09:01:26;4.50;;;2.47;;
10114;SDS011;5097;43.260;27.812;2023-05-10T09:04:11;2.97;;;2.67;;
10114;SDS011;5097;43.260;27.812;2023-05-10T09:06:56;5.00;;;2.78;;
10114;SDS011;5097;43.260;27.812;2023-05-10T09:09:40;4.15;;;2.97;;
10114;SDS011;5097;43.260;27.812;2023-05-10T09:12:24;8.98;;;2.97;;
10114;SDS011;5097;43.260;27.812;2023-05-10T09:15:08;4.00;;;2.63;;
10114;SDS011;5097;43.260;27.812;2023-05-10T09:17:54;2.95;;;2.65;;
10114;SDS011;5097;43.260;27.812;2023-05-10T09:20:40;3.63;;;2.53;;
10114;SDS011;5097;43.260;27.812;2023-05-10T09:23:24;8.35;;;3.42;;
10114;SDS011;5097;43.260;27.812;2023-05-10T09:26:14;3.13;;;2.80;;
10114;SDS011;5097;43.260;27.812;2023-05-10T09:28:59;4.90;;;3.15;;
10114;SDS011;5097;43.260;27.812;2023-05-10T09:31:46;2.90;;;2.70;;
10114;SDS011;5097;43.260;27.812;2023-05-10T09:34:35;5.28;;;2.88;;
10114;SDS011;5097;43.260;27.812;2023-05-10T09:37:28;4.55;;;2.95;;
10114;SDS011;5097;43.260;27.812;2023-05-10T09:40:14;4.28;;;2.78;;
10114;SDS011;5097;43.260;27.812;2023-05-10T09:43:01;9.20;;;3.78;;
10114;SDS011;5097;43.260;27.812;2023-05-10T09:45:47;4.30;;;3.08;;
10114;SDS011;5097;43.260;27.812;2023-05-10T09:48:32;2.95;;;2.63;;
10114;SDS011;5097;43.260;27.812;2023-05-10T09:51:21;4.97;;;2.40;;
10114;SDS011;5097;43.260;27.812;2023-05-10T09:54:09;3.08;;;2.85;;
10114;SDS011;5097;43.260;27.812;2023-05-10T09:56:54;7.28;;;2.80;;
10114;SDS011;5097;43.260;27.812;2023-05-10T09:59:38;4.13;;;2.83;;
10114;SDS011;5097;43.260;27.812;2023-05-10T10:02:28;6.50;;;3.00;;
10114;SDS011;5097;43.260;27.812;2023-05-10T10:05:12;2.92;;;2.72;;
10114;SDS011;5097;43.260;27.812;2023-05-10T10:07:58;5.13;;;2.80;;
10114;SDS011;5097;43.260;27.812;2023-05-10T10:10:44;2.92;;;2.72;;
10114;SDS011;5097;43.260;27.812;2023-05-10T10:13:28;4.68;;;3.53;;
10114;SDS011;5097;43.260;27.812;2023-05-10T10:16:14;4.82;;;2.78;;
10114;SDS011;5097;43.260;27.812;2023-05-10T10:18:58;5.13;;;2.75;;
10114;SDS011;5097;43.260;27.812;2023-05-10T10:21:43;5.45;;;2.85;;
10114;SDS011;5097;43.260;27.812;2023-05-10T10:24:28;3.53;;;2.78;;
10114;SDS011;5097;43.260;27.812;2023-05-10T10:27:15;5.45;;;2.83;;
10114;SDS011;5097;43.260;27.812;2023-05-10T10:30:10;4.38;;;2.88;;
10114;SDS011;5097;43.260;27.812;2023-05-10T10:33:09;3.33;;;3.03;;
10114;SDS011;5097;43.260;27.812;2023-05-10T10:36:10;3.10;;;2.90;;
10114;SDS011;5097;43.260;27.812;2023-05-10T10:38:57;4.90;;;3.35;;
10114;SDS011;5097;43.260;27.812;2023-05-10T10:41:50;3.17;;;2.78;;
10114;SDS011;5097;43.260;27.812;2023-05-10T10:44:36;4.63;;;2.90;;
10114;SDS011;5097;43.260;27.812;2023-05-10T10:47:24;4.75;;;3.60;;
10114;SDS011;5097;43.260;27.812;2023-05-10T10:50:15;5.20;;;3.47;;
10114;SDS011;5097;43.260;27.812;2023-05-10T10:53:00;4.85;;;2.80;;
10114;SDS011;5097;43.260;27.812;2023-05-10T10:56:02;2.95;;;2.65;;
10114;SDS011;5097;43.260;27.812;2023-05-10T10:58:51;3.42;;;3.05;;
10114;SDS011;5097;43.260;27.812;2023-05-10T11:01:36;6.05;;;3.00;;
10114;SDS011;5097;43.260;27.812;2023-05-10T11:04:26;5.95;;;2.83;;
10114;SDS011;5097;43.260;27.812;2023-05-10T11:07:17;5.43;;;2.90;;
10114;SDS011;5097;43.260;27.812;2023-05-10T11:10:04;5.53;;;3.25;;
10114;SDS011;5097;43.260;27.812;2023-05-10T11:12:52;2.80;;;2.60;;
10114;SDS011;5097;43.260;27.812;2023-05-10T11:15:39;4.35;;;2.78;;
10114;SDS011;5097;43.260;27.812;2023-05-10T11:18:32;4.03;;;2.70;;
10114;SDS011;5097;43.260;27.812;2023-05-10T11:21:16;4.00;;;2.88;;
10114;SDS011;5097;43.260;27.812;2023-05-10T11:24:00;4.38;;;2.70;;
10114;SDS011;5097;43.260;27.812;2023-05-10T11:26:49;3.65;;;2.67;;
10114;SDS011;5097;43.260;27.812;2023-05-10T11:29:34;8.77;;;3.55;;
10114;SDS011;5097;43.260;27.812;2023-05-10T11:32:20;8.65;;;3.50;;
10114;SDS011;5097;43.260;27.812;2023-05-10T11:35:08;4.55;;;2.83;;
10114;SDS011;5097;43.260;27.812;2023-05-10T11:37:53;6.97;;;3.78;;
10114;SDS011;5097;43.260;27.812;2023-05-10T11:40:37;3.33;;;3.05;;
10114;SDS011;5097;43.260;27.812;2023-05-10T11:43:23;3.47;;;3.00;;
10114;SDS011;5097;43.260;27.812;2023-05-10T11:46:12;5.95;;;3.90;;
10114;SDS011;5097;43.260;27.812;2023-05-10T11:48:59;4.72;;;2.75;;
10114;SDS011;5097;43.260;27.812;2023-05-10T11:51:46;3.97;;;3.50;;
10114;SDS011;5097;43.260;27.812;2023-05-10T11:54:30;3.90;;;3.42;;
10114;SDS011;5097;43.260;27.812;2023-05-10T11:57:17;4.25;;;3.90;;
10114;SDS011;5097;43.260;27.812;2023-05-10T12:00:03;5.35;;;3.00;;
10114;SDS011;5097;43.260;27.812;2023-05-10T12:02:48;7.07;;;3.13;;
10114;SDS011;5097;43.260;27.812;2023-05-10T12:05:35;3.92;;;2.60;;
10114;SDS011;5097;43.260;27.812;2023-05-10T12:08:20;4.15;;;2.83;;
10114;SDS011;5097;43.260;27.812;2023-05-10T12:11:06;3.97;;;2.80;;
10114;SDS011;5097;43.260;27.812;2023-05-10T12:13:53;4.40;;;2.90;;
10114;SDS011;5097;43.260;27.812;2023-05-10T12:16:37;5.72;;;3.17;;
10114;SDS011;5097;43.260;27.812;2023-05-10T12:19:22;6.10;;;3.57;;
10114;SDS011;5097;43.260;27.812;2023-05-10T12:22:07;3.40;;;3.10;;
10114;SDS011;5097;43.260;27.812;2023-05-10T12:24:52;5.73;;;3.20;;
10114;SDS011;5097;43.260;27.812;2023-05-10T12:27:36;3.97;;;2.77;;
10114;SDS011;5097;43.260;27.812;2023-05-10T12:30:21;5.00;;;2.88;;
10114;SDS011;5097;43.260;27.812;2023-05-10T12:33:10;5.60;;;3.17;;
10114;SDS011;5097;43.260;27.812;2023-05-10T12:35:58;5.13;;;3.20;;
10114;SDS011;5097;43.260;27.812;2023-05-10T12:38:46;2.72;;;2.53;;
10114;SDS011;5097;43.260;27.812;2023-05-10T12:41:30;3.47;;;3.17;;
10114;SDS011;5097;43.260;27.812;2023-05-10T12:44:14;3.65;;;2.60;;
10114;SDS011;5097;43.260;27.812;2023-05-10T12:46:59;2.85;;;2.65;;
10114;SDS011;5097;43.260;27.812;2023-05-10T12:49:43;6.28;;;3.65;;
10114;SDS011;5097;43.260;27.812;2023-05-10T12:52:27;4.35;;;2.85;;
10114;SDS011;5097;43.260;27.812;2023-05-10T12:55:12;6.03;;;3.10;;
10114;SDS011;5097;43.260;27.812;2023-05-10T12:57:56;4.43;;;3.42;;
10114;SDS011;5097;43.260;27.812;2023-05-10T13:00:40;3.67;;;3.03;;
10114;SDS011;5097;43.260;27.812;2023-05-10T13:03:24;3.95;;;2.88;;
10114;SDS011;5097;43.260;27.812;2023-05-10T13:06:08;3.58;;;3.13;;
10114;SDS011;5097;43.260;27.812;2023-05-10T13:08:52;4.13;;;3.20;;
10114;SDS011;5097;43.260;27.812;2023-05-10T13:11:38;3.00;;;2.67;;
10114;SDS011;5097;43.260;27.812;2023-05-10T13:14:22;4.03;;;3.73;;
10114;SDS011;5097;43.260;27.812;2023-05-10T13:17:06;4.25;;;3.67;;
10114;SDS011;5097;43.260;27.812;2023-05-10T13:19:50;5.32;;;3.60;;
10114;SDS011;5097;43.260;27.812;2023-05-10T13:22:34;3.85;;;3.47;;
10114;SDS011;5097;43.260;27.812;2023-05-10T13:25:21;3.38;;;3.08;;
10114;SDS011;5097;43.260;27.812;2023-05-10T13:28:07;3.65;;;2.95;;
10114;SDS011;5097;43.260;27.812;2023-05-10T13:30:50;6.53;;;3.92;;
10114;SDS011;5097;43.260;27.812;2023-05-10T13:33:34;4.63;;;3.70;;
10114;SDS011;5097;43.260;27.812;2023-05-10T13:36:18;3.65;;;3.10;;
10114;SDS011;5097;43.260;27.812;2023-05-10T13:39:02;6.95;;;3.47;;
10114;SDS011;5097;43.260;27.812;2023-05-10T13:41:47;4.32;;;3.38;;
10114;SDS011;5097;43.260;27.812;2023-05-10T13:44:32;4.00;;;3.33;;
10114;SDS011;5097;43.260;27.812;2023-05-10T13:47:16;3.78;;;2.80;;
10114;SDS011;5097;43.260;27.812;2023-05-10T13:50:00;6.75;;;3.97;;
10114;SDS011;5097;43.260;27.812;2023-05-10T13:52:47;4.10;;;2.83;;
10114;SDS011;5097;43.260;27.812;2023-05-10T13:55:31;6.53;;;3.17;;
10114;SDS011;5097;43.260;27.812;2023-05-10T13:58:15;7.38;;;2.67;;
10114;SDS011;5097;43.260;27.812;2023-05-10T14:01:01;3.40;;;2.75;;
10114;SDS011;5097;43.260;27.812;2023-05-10T14:03:45;5.60;;;3.38;;
10114;SDS011;5097;43.260;27.812;2023-05-10T14:06:29;4.28;;;3.30;;
10114;SDS011;5097;43.260;27.812;2023-05-10T14:09:13;3.75;;;3.38;;
10114;SDS011;5097;43.260;27.812;2023-05-10T14:11:57;5.30;;;2.70;;
10114;SDS011;5097;43.260;27.812;2023-05-10T14:14:41;4.38;;;3.10;;
10114;SDS011;5097;43.260;27.812;2023-05-10T14:17:26;5.13;;;2.80;;
10114;SDS011;5097;43.260;27.812;2023-05-10T14:20:11;3.22;;;2.80;;
10114;SDS011;5097;43.260;27.812;2023-05-10T14:22:54;3.42;;;2.35;;
10114;SDS011;5097;43.260;27.812;2023-05-10T14:25:39;3.90;;;2.85;;
10114;SDS011;5097;43.260;27.812;2023-05-10T14:28:23;2.95;;;2.67;;
10114;SDS011;5097;43.260;27.812;2023-05-10T14:31:07;7.00;;;2.75;;
10114;SDS011;5097;43.260;27.812;2023-05-10T14:33:53;2.88;;;2.53;;
10114;SDS011;5097;43.260;27.812;2023-05-10T14:36:37;2.85;;;2.58;;
10114;SDS011;5097;43.260;27.812;2023-05-10T14:39:21;3.78;;;2.75;;
10114;SDS011;5097;43.260;27.812;2023-05-10T14:42:05;3.90;;;2.85;;
10114;SDS011;5097;43.260;27.812;2023-05-10T14:44:49;5.25;;;3.05;;
10114;SDS011;5097;43.260;27.812;2023-05-10T14:47:33;5.32;;;2.70;;
10114;SDS011;5097;43.260;27.812;2023-05-10T14:50:19;5.38;;;2.78;;
10114;SDS011;5097;43.260;27.812;2023-05-10T14:53:17;4.32;;;3.10;;
10114;SDS011;5097;43.260;27.812;2023-05-10T14:56:02;5.10;;;2.95;;
10114;SDS011;5097;43.260;27.812;2023-05-10T14:58:45;6.60;;;2.72;;
10114;SDS011;5097;43.260;27.812;2023-05-10T15:01:29;5.55;;;2.72;;
10114;SDS011;5097;43.260;27.812;2023-05-10T15:04:15;3.67;;;2.70;;
10114;SDS011;5097;43.260;27.812;2023-05-10T15:07:01;3.42;;;2.85;;
10114;SDS011;5097;43.260;27.812;2023-05-10T15:09:45;3.63;;;2.60;;
10114;SDS011;5097;43.260;27.812;2023-05-10T15:12:29;3.78;;;3.22;;
10114;SDS011;5097;43.260;27.812;2023-05-10T15:15:13;6.55;;;3.47;;
10114;SDS011;5097;43.260;27.812;2023-05-10T15:17:57;4.45;;;3.28;;
10114;SDS011;5097;43.260;27.812;2023-05-10T15:20:41;5.68;;;3.20;;
10114;SDS011;5097;43.260;27.812;2023-05-10T15:23:26;4.80;;;2.30;;
10114;SDS011;5097;43.260;27.812;2023-05-10T15:26:12;9.18;;;3.50;;
10114;SDS011;5097;43.260;27.812;2023-05-10T15:28:55;5.35;;;3.05;;
10114;SDS011;5097;43.260;27.812;2023-05-10T15:31:39;7.25;;;2.92;;
10114;SDS011;5097;43.260;27.812;2023-05-10T15:34:23;6.13;;;3.28;;
10114;SDS011;5097;43.260;27.812;2023-05-10T15:37:07;3.38;;;2.65;;
10114;SDS011;5097;43.260;27.812;2023-05-10T15:39:53;2.63;;;2.43;;
10114;SDS011;5097;43.260;27.812;2023-05-10T15:42:48;3.22;;;2.40;;
10114;SDS011;5097;43.260;27.812;2023-05-10T15:45:32;3.97;;;2.70;;
10114;SDS011;5097;43.260;27.812;2023-05-10T15:48:18;3.75;;;2.67;;
10114;SDS011;5097;43.260;27.812;2023-05-10T15:51:02;6.50;;;2.83;;
10114;SDS011;5097;43.260;27.812;2023-05-10T15:53:46;3.35;;;3.03;;
10114;SDS011;5097;43.260;27.812;2023-05-10T15:56:49;5.40;;;3.17;;
10114;SDS011;5097;43.260;27.812;2023-05-10T15:59:33;5.90;;;3.10;;
10114;SDS011;5097;43.260;27.812;2023-05-10T16:02:17;3.93;;;2.97;;
10114;SDS011;5097;43.260;27.812;2023-05-10T16:05:01;9.20;;;3.43;;
10114;SDS011;5097;43.260;27.812;2023-05-10T16:07:46;4.17;;;2.80;;
10114;SDS011;5097;43.260;27.812;2023-05-10T16:10:30;3.50;;;2.90;;
10114;SDS011;5097;43.260;27.812;2023-05-10T16:13:16;3.33;;;3.05;;
10114;SDS011;5097;43.260;27.812;2023-05-10T16:16:00;3.93;;;3.10;;
10114;SDS011;5097;43.260;27.812;2023-05-10T16:18:44;5.03;;;3.33;;
10114;SDS011;5097;43.260;27.812;2023-05-10T16:21:28;4.83;;;3.00;;
10114;SDS011;5097;43.260;27.812;2023-05-10T16:24:13;4.20;;;3.33;;
10114;SDS011;5097;43.260;27.812;2023-05-10T16:26:57;4.10;;;3.33;;
10114;SDS011;5097;43.260;27.812;2023-05-10T16:29:43;3.63;;;3.00;;
10114;SDS011;5097;43.260;27.812;2023-05-10T16:32:26;5.30;;;3.20;;
10114;SDS011;5097;43.260;27.812;2023-05-10T16:35:10;5.10;;;3.70;;